Time;durP1;ratioP1;P1;durP2;ratioP2;P2;SDS_P1;SDS_P2;PMS_P1;PMS_P2;Temp;Humidity;BMP_temperature;BMP_pressure;BME280_temperature;BME280_humidity;BME280_pressure;Samples;Min_cycle;Max_cycle;Signal;HPM_P1;HPM_P2
2021/08/30 04:28:22;;;;;;;2.13;1.13;;;;;;;20.84;44.22;98263.84;6238177;22;20069;-65
2021/08/30 04:30:48;;;;;;;1.00;0.63;;;;;;;20.67;43.98;98272.06;6244795;23;20479;-64
2021/08/30 04:33:14;;;;;;;0.20;0.20;;;;;;;20.59;43.53;98263.25;6244858;23;20090;-65
2021/08/30 04:35:40;;;;;;;1.60;0.57;;;;;;;20.46;43.57;98264.97;6245047;23;20011;-64
2021/08/30 04:38:07;;;;;;;0.90;0.47;;;;;;;20.24;43.60;98249.00;6245091;23;20012;-65
2021/08/30 04:40:33;;;;;;;0.40;0.40;;;;;;;20.05;43.42;98259.44;6246281;23;20008;-64
2021/08/30 04:42:59;;;;;;;4.05;0.93;;;;;;;19.85;43.51;98258.72;6246732;23;20055;-64
2021/08/30 04:45:25;;;;;;;0.80;0.80;;;;;;;19.72;43.49;98263.13;6262465;23;20012;-65
2021/08/30 04:47:51;;;;;;;0.77;0.77;;;;;;;19.54;43.58;98256.53;6247768;23;20081;-65
2021/08/30 04:50:16;;;;;;;1.08;0.70;;;;;;;19.31;43.55;98252.75;6245004;23;20352;-63
2021/08/30 04:52:42;;;;;;;0.45;0.45;;;;;;;19.02;43.74;98248.28;6244835;23;20073;-65
2021/08/30 04:55:11;;;;;;;0.30;0.30;;;;;;;18.78;43.94;98250.31;6245139;23;20044;-64
2021/08/30 04:57:36;;;;;;;0.60;0.60;;;;;;;18.63;43.85;98257.75;6244626;23;20081;-65
2021/08/30 05:00:04;;;;;;;0.40;0.30;;;;;;;18.51;43.71;98257.41;6244413;23;20007;-64
2021/08/30 05:02:29;;;;;;;2.92;1.20;;;;;;;18.49;43.41;98271.59;6244596;23;20091;-63
2021/08/30 05:04:56;;;;;;;1.60;0.70;;;;;;;18.62;42.97;98260.84;6244739;23;20138;-64
2021/08/30 05:07:21;;;;;;;0.28;0.28;;;;;;;18.69;42.54;98267.66;6244628;23;20091;-64
2021/08/30 05:09:47;;;;;;;0.60;0.40;;;;;;;18.72;42.31;98263.47;6245006;23;20036;-64
2021/08/30 05:12:13;;;;;;;0.40;0.40;;;;;;;18.68;42.12;98259.63;6218037;23;20134;-65
2021/08/30 05:14:39;;;;;;;1.77;1.67;;;;;;;18.72;41.83;98267.06;6244824;23;20016;-64
2021/08/30 05:17:04;;;;;;;0.65;0.57;;;;;;;18.78;41.54;98270.59;6244722;23;20016;-65
2021/08/30 05:19:30;;;;;;;0.50;0.50;;;;;;;18.92;41.20;98267.91;6244397;23;20097;-65
2021/08/30 05:21:56;;;;;;;0.40;0.20;;;;;;;18.92;41.20;98276.25;6244640;23;20094;-65
2021/08/30 05:24:21;;;;;;;0.70;0.70;;;;;;;18.87;41.23;98268.84;6244703;23;20012;-64
2021/08/30 05:26:47;;;;;;;0.93;0.50;;;;;;;18.72;41.23;98272.63;6244565;23;20089;-64
2021/08/30 05:29:13;;;;;;;0.15;0.15;;;;;;;18.61;41.40;98273.94;6244033;23;20046;-65
2021/08/30 05:31:38;;;;;;;0.10;0.10;;;;;;;18.56;41.44;98277.63;6245139;23;20016;-64
2021/08/30 05:34:04;;;;;;;0.50;0.50;;;;;;;18.48;41.46;98281.06;6244516;23;20018;-66
2021/08/30 05:36:30;;;;;;;1.30;0.40;;;;;;;18.51;41.42;98280.47;6244393;23;20451;-65
2021/08/30 05:38:56;;;;;;;0.20;0.20;;;;;;;18.62;41.05;98283.09;6243246;23;20070;-63
2021/08/30 05:41:22;;;;;;;0.32;0.32;;;;;;;18.67;40.97;98280.25;6243263;23;20020;-65
2021/08/30 05:43:48;;;;;;;1.27;1.00;;;;;;;18.71;40.79;98286.84;6243629;23;20467;-63
2021/08/30 05:46:16;;;;;;;0.68;0.68;;;;;;;18.82;40.70;98281.97;6245453;23;20055;-64
2021/08/30 05:48:44;;;;;;;0.10;0.10;;;;;;;18.84;40.50;98272.16;6245247;23;20008;-65
2021/08/30 05:51:09;;;;;;;0.77;0.57;;;;;;;18.56;40.94;98285.97;6245045;23;20154;-63
2021/08/30 05:53:35;;;;;;;0.30;0.30;;;;;;;18.14;41.54;98275.72;6245244;23;20460;-65
2021/08/30 05:56:01;;;;;;;0.40;0.40;;;;;;;17.71;42.36;98278.41;6245169;23;20099;-64
2021/08/30 05:58:26;;;;;;;0.63;0.55;;;;;;;17.48;42.76;98287.25;6244212;23;20054;-65
2021/08/30 06:00:52;;;;;;;0.52;0.52;;;;;;;17.42;42.93;98282.06;6244766;23;20398;-65
2021/08/30 06:03:18;;;;;;;0.40;0.40;;;;;;;17.54;42.44;98287.19;6244814;23;20020;-64
2021/08/30 06:05:43;;;;;;;0.40;0.40;;;;;;;17.70;42.00;98283.13;6245167;23;20348;-64
2021/08/30 06:08:09;;;;;;;0.68;0.38;;;;;;;17.96;41.54;98283.69;6244759;23;20008;-64
2021/08/30 06:10:35;;;;;;;2.90;0.30;;;;;;;18.26;41.09;98280.81;6244592;23;20514;-64
2021/08/30 06:13:01;;;;;;;1.20;0.73;;;;;;;18.55;40.49;98284.28;6244970;23;20087;-64
2021/08/30 06:15:26;;;;;;;0.22;0.22;;;;;;;18.56;40.67;98279.56;6244698;23;20131;-64
2021/08/30 06:17:52;;;;;;;0.73;0.63;;;;;;;18.64;40.32;98278.88;6244709;23;20018;-64
2021/08/30 06:20:18;;;;;;;0.20;0.20;;;;;;;18.70;40.47;98274.91;6244792;23;20442;-64
2021/08/30 06:22:44;;;;;;;0.80;0.57;;;;;;;18.56;40.79;98279.56;6244924;23;20008;-65
2021/08/30 06:25:10;;;;;;;0.20;0.20;;;;;;;18.27;41.10;98285.25;6217784;23;20461;-65
2021/08/30 06:27:35;;;;;;;0.20;0.20;;;;;;;17.97;41.77;98287.28;6244881;23;20070;-66
2021/08/30 06:30:01;;;;;;;0.20;0.20;;;;;;;17.74;42.19;98289.75;6243641;23;20027;-65
2021/08/30 06:32:27;;;;;;;0.30;0.30;;;;;;;17.56;42.35;98280.22;6244899;23;20018;-63
2021/08/30 06:34:53;;;;;;;0.65;0.65;;;;;;;17.50;42.23;98285.03;6244082;23;20012;-64
2021/08/30 06:37:19;;;;;;;0.35;0.35;;;;;;;17.22;42.80;98283.88;6244683;23;20016;-65
2021/08/30 06:39:44;;;;;;;0.30;0.30;;;;;;;17.03;43.20;98278.22;6244481;23;20015;-65
2021/08/30 06:42:10;;;;;;;0.20;0.20;;;;;;;17.22;42.75;98281.09;6239699;23;20032;-64
2021/08/30 06:44:36;;;;;;;0.10;0.10;;;;;;;17.32;42.56;98274.66;6242171;23;20012;-63
2021/08/30 06:47:02;;;;;;;0.40;0.40;;;;;;;17.29;42.41;98284.38;6242063;23;20047;-65
2021/08/30 06:49:27;;;;;;;0.30;0.22;;;;;;;17.26;42.48;98279.41;6242629;23;20534;-64
2021/08/30 06:51:53;;;;;;;0.35;0.35;;;;;;;17.25;42.27;98285.25;6242206;23;20004;-65
2021/08/30 06:54:19;;;;;;;0.30;0.30;;;;;;;17.11;42.76;98277.59;6243739;23;20456;-65
2021/08/30 06:56:44;;;;;;;0.38;0.38;;;;;;;16.84;43.05;98278.06;6222856;23;20480;-64
2021/08/30 06:59:10;;;;;;;0.20;0.20;;;;;;;16.66;43.18;98274.03;6249212;23;20452;-63
2021/08/30 07:01:36;;;;;;;0.10;0.10;;;;;;;16.72;43.11;98264.56;6243560;23;20066;-65
2021/08/30 07:04:02;;;;;;;0.30;0.30;;;;;;;17.08;42.41;98271.81;6243614;23;20008;-64
2021/08/30 07:06:27;;;;;;;0.52;0.50;;;;;;;17.32;41.80;98275.47;6243445;23;20069;-63
2021/08/30 07:08:53;;;;;;;0.38;0.30;;;;;;;17.35;41.78;98274.06;6243566;23;20012;-64
2021/08/30 07:11:19;;;;;;;0.10;0.10;;;;;;;17.15;42.19;98267.59;6243261;23;20004;-65
2021/08/30 07:13:45;;;;;;;0.57;0.52;;;;;;;16.99;42.43;98269.66;6243339;23;20012;-66
2021/08/30 07:16:11;;;;;;;0.25;0.25;;;;;;;17.10;42.21;98264.03;6243469;23;20039;-64
2021/08/30 07:18:36;;;;;;;0.35;0.35;;;;;;;17.38;41.84;98256.81;6243235;23;20070;-64
2021/08/30 07:21:02;;;;;;;0.20;0.20;;;;;;;17.67;41.14;98261.50;6243044;23;20014;-63
2021/08/30 07:23:30;;;;;;;1.00;0.35;;;;;;;17.99;40.64;98268.38;6242037;23;20087;-64
2021/08/30 07:25:56;;;;;;;0.30;0.30;;;;;;;18.15;40.52;98255.09;6241944;23;20016;-65
2021/08/30 07:28:22;;;;;;;0.10;0.10;;;;;;;18.14;40.41;98248.75;6241144;23;20040;-64
2021/08/30 07:30:48;;;;;;;0.40;0.40;;;;;;;18.04;40.67;98255.25;6241586;23;20015;-64
2021/08/30 07:33:15;;;;;;;1.17;0.60;;;;;;;18.12;40.37;98239.84;6241931;23;20158;-65
2021/08/30 07:35:41;;;;;;;1.05;0.82;;;;;;;17.94;40.95;98249.00;6242028;23;20062;-62
2021/08/30 07:38:06;;;;;;;1.65;0.22;;;;;;;17.61;41.43;98246.03;6242064;23;20011;-64
2021/08/30 07:40:32;;;;;;;0.55;0.30;;;;;;;17.33;41.87;98265.22;6241839;23;20018;-62
2021/08/30 07:42:58;;;;;;;0.50;0.50;;;;;;;17.15;42.18;98259.28;6242796;23;20011;-64
2021/08/30 07:45:24;;;;;;;0.38;0.38;;;;;;;17.20;42.00;98268.66;6242361;23;20016;-62
2021/08/30 07:47:50;;;;;;;0.55;0.30;;;;;;;17.27;41.73;98256.09;6241875;23;20066;-62
2021/08/30 07:50:16;;;;;;;1.75;0.95;;;;;;;17.45;41.34;98264.81;6242543;23;20463;-62
2021/08/30 07:52:41;;;;;;;0.22;0.22;;;;;;;17.37;41.42;98260.69;6242205;23;20036;-63
2021/08/30 07:55:08;;;;;;;0.10;0.10;;;;;;;17.23;41.81;98251.44;6242058;23;20086;-64
2021/08/30 07:57:34;;;;;;;0.57;0.32;;;;;;;17.10;41.75;98259.31;6241937;23;20016;-63
2021/08/30 08:00:00;;;;;;;0.20;0.20;;;;;;;16.96;42.11;98259.16;6241555;23;20008;-62
2021/08/30 08:02:25;;;;;;;0.38;0.30;;;;;;;16.89;41.79;98264.22;6215484;23;20019;-64
2021/08/30 08:04:51;;;;;;;1.08;0.73;;;;;;;17.07;41.56;98270.97;6242615;23;20008;-62
2021/08/30 08:07:17;;;;;;;0.20;0.20;;;;;;;17.22;41.38;98266.41;6241748;23;20062;-64
2021/08/30 08:09:43;;;;;;;0.30;0.30;;;;;;;17.33;41.14;98271.56;6241921;23;20008;-64
2021/08/30 08:12:08;;;;;;;1.20;1.10;;;;;;;17.60;40.79;98274.91;6242319;23;20634;-62
2021/08/30 08:14:35;;;;;;;2.08;0.98;;;;;;;17.90;40.02;98270.97;6241911;23;20506;-62
2021/08/30 08:17:00;;;;;;;0.10;0.10;;;;;;;18.02;39.99;98267.78;6242335;23;20011;-64
2021/08/30 08:19:26;;;;;;;0.25;0.25;;;;;;;17.93;40.24;98269.56;6239786;23;20348;-63
2021/08/30 08:21:55;;;;;;;0.40;0.40;;;;;;;17.72;40.70;98282.84;6241131;23;20051;-63
2021/08/30 08:24:23;;;;;;;0.55;0.55;;;;;;;17.52;40.96;98274.44;6241624;23;20288;-63
2021/08/30 08:26:49;;;;;;;0.30;0.30;;;;;;;17.39;41.17;98275.13;6241523;23;20019;-63
2021/08/30 08:29:15;;;;;;;0.52;0.52;;;;;;;17.44;41.07;98277.84;6241222;23;20103;-63
2021/08/30 08:31:41;;;;;;;0.10;0.10;;;;;;;17.41;41.07;98283.97;6241208;23;20062;-65
2021/08/30 08:34:07;;;;;;;0.10;0.10;;;;;;;17.37;41.24;98291.22;6241379;23;20012;-63
2021/08/30 08:36:32;;;;;;;0.43;0.43;;;;;;;17.37;40.94;98290.41;6241611;23;20103;-63
2021/08/30 08:38:58;;;;;;;0.55;0.40;;;;;;;17.31;41.26;98286.84;6241419;23;20015;-64
2021/08/30 08:41:24;;;;;;;0.10;0.10;;;;;;;17.36;41.07;98283.19;6241320;23;20070;-63
2021/08/30 08:43:55;;;;;;;0.30;0.30;;;;;;;17.48;40.64;98276.13;6241739;23;20011;-66
2021/08/30 08:46:23;;;;;;;0.50;0.20;;;;;;;17.59;40.45;98282.41;6241409;23;20441;-66
2021/08/30 08:48:49;;;;;;;0.70;0.70;;;;;;;17.61;40.33;98287.69;6242136;23;20460;-63
2021/08/30 08:51:16;;;;;;;0.17;0.17;;;;;;;17.40;40.68;98282.34;6241407;23;20008;-67
2021/08/30 08:53:43;;;;;;;0.10;0.10;;;;;;;17.15;41.07;98281.47;6241802;23;20089;-60
2021/08/30 08:56:16;;;;;;;0.20;0.20;;;;;;;17.09;41.29;98279.84;6241803;23;20019;-62
2021/08/30 08:58:42;;;;;;;0.40;0.32;;;;;;;17.02;41.14;98290.44;6240950;23;20012;-61
2021/08/30 09:01:13;;;;;;;0.10;0.10;;;;;;;16.91;41.50;98288.88;6240845;23;20016;-64
2021/08/30 09:03:46;;;;;;;0.20;0.20;;;;;;;17.08;40.91;98294.00;6242061;23;20000;-66
2021/08/30 09:06:23;;;;;;;0.17;0.17;;;;;;;17.36;40.36;98283.19;6241529;23;20417;-64
2021/08/30 09:08:56;;;;;;;0.20;0.20;;;;;;;17.54;40.12;98292.75;6243713;23;20097;-64
2021/08/30 09:11:25;;;;;;;0.10;0.10;;;;;;;17.55;39.97;98303.56;6242216;23;20008;-64
2021/08/30 09:13:57;;;;;;;3.10;0.32;;;;;;;17.63;39.79;98296.53;6241702;23;20164;-65
2021/08/30 09:16:25;;;;;;;0.43;0.43;;;;;;;17.77;39.73;98283.63;6241422;23;20066;-62
2021/08/30 09:19:01;;;;;;;0.20;0.20;;;;;;;17.82;39.53;98296.59;6242349;23;20745;-63
2021/08/30 09:21:27;;;;;;;0.40;0.40;;;;;;;17.77;39.59;98297.50;6243608;23;20083;-63
2021/08/30 09:23:52;;;;;;;0.20;0.20;;;;;;;17.81;39.60;98303.28;6243736;23;20020;-64
2021/08/30 09:26:20;;;;;;;0.28;0.25;;;;;;;17.92;39.49;98295.66;6243723;23;20312;-62
2021/08/30 09:28:55;;;;;;;0.25;0.25;;;;;;;17.95;39.40;98295.09;6240053;23;20445;-63
2021/08/30 09:31:22;;;;;;;0.40;0.40;;;;;;;18.09;39.20;98290.47;6242998;23;20023;-63
2021/08/30 09:33:50;;;;;;;0.25;0.25;;;;;;;18.21;39.25;98299.22;6240540;23;20016;-64
2021/08/30 09:36:17;;;;;;;0.20;0.20;;;;;;;18.07;39.40;98283.56;6243094;23;20023;-63
2021/08/30 09:38:43;;;;;;;0.63;0.63;;;;;;;17.64;40.22;98289.88;6243276;23;20396;-62
2021/08/30 09:41:11;;;;;;;1.83;1.10;;;;;;;17.41;40.35;98289.53;6243584;23;20460;-62
2021/08/30 09:43:37;;;;;;;0.80;0.75;;;;;;;17.22;40.89;98305.25;6243543;23;20043;-63
2021/08/30 09:46:04;;;;;;;0.10;0.10;;;;;;;17.06;41.05;98299.00;6243594;23;20012;-63
2021/08/30 09:48:31;;;;;;;0.22;0.22;;;;;;;16.87;41.16;98301.63;6243227;23;20015;-62
2021/08/30 09:51:05;;;;;;;0.20;0.20;;;;;;;16.68;41.54;98307.88;6243243;23;20445;-63
2021/08/30 09:53:34;;;;;;;;;;;;;;;16.37;41.94;98307.19;6240957;23;20016;-64
2021/08/30 09:56:00;;;;;;;0.10;0.10;;;;;;;16.03;42.50;98316.22;6241344;23;20045;-64
2021/08/30 09:58:27;;;;;;;0.10;0.10;;;;;;;15.77;42.68;98317.09;6239707;23;20083;-64
2021/08/30 10:00:56;;;;;;;0.17;0.17;;;;;;;15.65;42.84;98330.44;6243356;23;20074;-64
2021/08/30 10:03:24;;;;;;;0.30;0.30;;;;;;;15.66;42.83;98323.78;6241807;23;20000;-65
2021/08/30 10:05:51;;;;;;;0.15;0.15;;;;;;;15.83;42.36;98317.13;6242503;23;20057;-63
2021/08/30 10:08:19;;;;;;;0.20;0.20;;;;;;;15.99;41.92;98318.75;6242848;23;20087;-64
2021/08/30 10:10:45;;;;;;;0.20;0.20;;;;;;;16.19;41.44;98317.81;6240580;23;20046;-65
2021/08/30 10:13:11;;;;;;;0.32;0.32;;;;;;;16.34;41.08;98328.00;6213579;23;20012;-63
2021/08/30 10:15:38;;;;;;;0.10;0.10;;;;;;;16.49;40.93;98313.25;6243844;23;20075;-64
2021/08/30 10:18:04;;;;;;;0.20;0.20;;;;;;;16.70;40.65;98316.72;6244052;23;20333;-64
2021/08/30 10:20:34;;;;;;;0.70;0.20;;;;;;;16.72;40.53;98308.91;6244167;23;20019;-63
2021/08/30 10:23:04;;;;;;;0.10;0.10;;;;;;;16.61;40.80;98299.84;6243857;23;20016;-63
2021/08/30 10:25:34;;;;;;;0.10;0.10;;;;;;;16.48;41.08;98311.59;6244174;23;20008;-67
2021/08/30 10:28:02;;;;;;;0.32;0.32;;;;;;;16.25;41.41;98299.22;6244601;23;20507;-66
2021/08/30 10:30:29;;;;;;;0.50;0.50;;;;;;;15.92;42.02;98301.59;6242747;23;20355;-65
2021/08/30 10:33:01;;;;;;;0.10;0.10;;;;;;;15.67;42.35;98310.78;6243919;23;20099;-63
2021/08/30 10:35:31;;;;;;;0.13;0.13;;;;;;;15.47;42.77;98315.22;6244351;23;20043;-64
2021/08/30 10:38:01;;;;;;;0.20;0.20;;;;;;;15.35;42.84;98318.28;6243885;23;20016;-62
2021/08/30 10:40:30;;;;;;;1.85;0.95;;;;;;;15.27;42.86;98323.53;6243819;23;20012;-63
2021/08/30 10:43:01;;;;;;;0.43;0.43;;;;;;;15.22;43.01;98324.38;6216869;23;20353;-64
2021/08/30 10:45:32;;;;;;;0.40;0.40;;;;;;;15.14;43.03;98336.03;6244389;23;20083;-63
2021/08/30 10:48:01;;;;;;;0.10;0.10;;;;;;;15.14;42.84;98328.53;6243849;23;20094;-63
2021/08/30 10:50:26;;;;;;;0.93;0.93;;;;;;;15.15;42.63;98340.44;6243805;23;20070;-67
2021/08/30 10:53:06;;;;;;;0.55;0.40;;;;;;;15.12;42.69;98324.38;6244263;23;20007;-66
2021/08/30 10:55:40;;;;;;;0.30;0.30;;;;;;;15.18;42.58;98335.19;6244253;23;20772;-66
2021/08/30 10:58:13;;;;;;;1.08;0.63;;;;;;;15.41;41.88;98333.78;6244193;23;20016;-64
2021/08/30 11:00:39;;;;;;;0.22;0.22;;;;;;;15.53;41.50;98343.72;6244042;23;20022;-63
2021/08/30 11:03:05;;;;;;;0.47;0.20;;;;;;;15.49;41.74;98346.22;6243821;23;20036;-66
2021/08/30 11:05:31;;;;;;;0.10;0.10;;;;;;;15.39;41.63;98338.75;6243747;23;20015;-61
2021/08/30 11:07:58;;;;;;;0.40;0.40;;;;;;;15.24;41.99;98344.31;6244124;23;20344;-63
2021/08/30 11:10:25;;;;;;;0.28;0.28;;;;;;;15.18;42.15;98332.41;6243751;23;20016;-65
2021/08/30 11:12:58;;;;;;;0.63;0.52;;;;;;;15.22;42.09;98339.06;6243505;23;20019;-63
2021/08/30 11:15:30;;;;;;;0.10;0.10;;;;;;;15.27;41.68;98349.28;6243192;23;20012;-63
2021/08/30 11:18:03;;;;;;;0.40;0.40;;;;;;;15.29;41.64;98352.59;6244000;23;20447;-65
2021/08/30 11:20:29;;;;;;;0.40;0.40;;;;;;;15.33;41.55;98356.47;6244171;23;20016;-63
2021/08/30 11:22:55;;;;;;;1.35;0.35;;;;;;;15.42;41.60;98362.28;6243027;23;20058;-61
2021/08/30 11:25:21;;;;;;;0.85;0.55;;;;;;;15.65;41.01;98363.66;6243964;23;20062;-63
2021/08/30 11:27:47;;;;;;;0.10;0.10;;;;;;;15.74;40.94;98373.03;6243832;23;20008;-64
2021/08/30 11:30:14;;;;;;;0.35;0.35;;;;;;;15.76;40.53;98367.22;6242900;23;20027;-66
2021/08/30 11:32:41;;;;;;;0.20;0.20;;;;;;;15.76;40.75;98369.97;6244200;23;20012;-64
2021/08/30 11:35:12;;;;;;;0.30;0.30;;;;;;;15.76;40.84;98358.91;6243049;23;20015;-65
2021/08/30 11:37:38;;;;;;;0.90;0.85;;;;;;;15.68;40.67;98374.16;6243706;23;20022;-65
2021/08/30 11:40:10;;;;;;;0.52;0.30;;;;;;;15.62;40.73;98377.19;6243666;23;20087;-66
2021/08/30 11:42:36;;;;;;;0.55;0.55;;;;;;;15.54;41.04;98373.88;6242952;23;20019;-65
2021/08/30 11:45:05;;;;;;;0.43;0.43;;;;;;;15.48;41.09;98374.19;6242820;23;20012;-66
2021/08/30 11:47:31;;;;;;;0.50;0.50;;;;;;;15.48;41.02;98379.72;6242640;23;20054;-68
2021/08/30 11:50:04;;;;;;;0.20;0.20;;;;;;;15.54;41.11;98376.66;6242581;23;20023;-65
2021/08/30 11:52:33;;;;;;;0.40;0.40;;;;;;;15.47;41.08;98372.50;6242317;23;20012;-66
2021/08/30 11:55:02;;;;;;;1.20;0.50;;;;;;;15.27;41.18;98371.41;6242093;23;20087;-65
2021/08/30 11:58:06;;;;;;;0.57;0.57;;;;;;;15.12;41.46;98368.63;6240671;23;20016;-65
2021/08/30 12:04:35;;;;;;;0.22;0.22;;;;;;;14.88;41.51;98380.22;6237161;23;20043;-66
2021/08/30 12:07:05;;;;;;;0.52;0.52;;;;;;;14.88;41.54;98378.31;6214020;23;20016;-64
2021/08/30 12:09:51;;;;;;;0.10;0.10;;;;;;;14.89;41.23;98382.69;6242182;23;20066;-65
2021/08/30 12:12:26;;;;;;;0.52;0.52;;;;;;;14.83;41.50;98382.97;6241658;23;20015;-70
2021/08/30 12:15:04;;;;;;;0.10;0.10;;;;;;;14.75;41.60;98384.31;6241886;23;20008;-65
2021/08/30 12:17:40;;;;;;;0.20;0.20;;;;;;;14.65;41.48;98379.63;6241974;23;20012;-66
2021/08/30 12:20:13;;;;;;;0.10;0.10;;;;;;;14.62;41.76;98379.31;6243237;23;20019;-68
2021/08/30 12:22:45;;;;;;;0.28;0.22;;;;;;;14.70;41.19;98387.91;6243322;23;20003;-68
2021/08/30 12:25:16;;;;;;;0.17;0.17;;;;;;;14.76;41.11;98383.22;6241047;23;20019;-67
2021/08/30 12:27:47;;;;;;;0.20;0.20;;;;;;;14.82;41.26;98381.31;6243052;23;20015;-67
2021/08/30 12:30:22;;;;;;;0.15;0.15;;;;;;;14.98;40.65;98376.66;6241802;23;20023;-66
2021/08/30 12:33:08;;;;;;;0.17;0.17;;;;;;;15.07;40.39;98378.59;6243716;23;20116;-66
2021/08/30 12:35:46;;;;;;;0.40;0.40;;;;;;;14.95;40.76;98383.53;6244864;23;20008;-65
2021/08/30 12:38:19;;;;;;;0.10;0.10;;;;;;;14.84;40.69;98384.63;6244880;23;20039;-65
2021/08/30 12:40:50;;;;;;;0.20;0.20;;;;;;;14.69;41.04;98388.19;6244572;23;20015;-66
2021/08/30 12:43:17;;;;;;;0.30;0.30;;;;;;;14.42;41.69;98391.13;6244426;23;20081;-68
2021/08/30 12:45:45;;;;;;;0.20;0.20;;;;;;;14.16;41.80;98391.00;6244086;23;20816;-65
2021/08/30 12:48:11;;;;;;;0.52;0.38;;;;;;;14.00;42.35;98406.66;6244018;23;20007;-66
2021/08/30 12:50:39;;;;;;;0.17;0.17;;;;;;;13.79;42.61;98389.13;6243744;23;20008;-67
2021/08/30 12:53:06;;;;;;;0.10;0.10;;;;;;;13.61;42.75;98388.47;6244189;23;20437;-66
2021/08/30 12:55:31;;;;;;;0.25;0.25;;;;;;;13.47;42.87;98387.25;6244267;23;20012;-78
2021/08/30 12:57:57;;;;;;;0.10;0.10;;;;;;;13.40;42.70;98398.53;6245658;23;20035;-68
2021/08/30 13:00:23;;;;;;;0.20;0.20;;;;;;;13.33;42.79;98404.22;6243362;23;20444;-66
2021/08/30 13:02:51;;;;;;;0.80;0.73;;;;;;;13.38;42.50;98399.88;6243623;23;20403;-66
2021/08/30 13:05:23;;;;;;;0.55;0.55;;;;;;;13.41;42.65;98400.19;6243759;23;20008;-69
2021/08/30 13:07:51;;;;;;;0.20;0.20;;;;;;;13.52;42.26;98401.09;6244016;23;20035;-68
2021/08/30 13:10:17;;;;;;;0.20;0.20;;;;;;;13.62;42.10;98400.34;6243454;23;20015;-70
2021/08/30 13:12:44;;;;;;;0.45;0.45;;;;;;;13.66;41.88;98405.06;6244546;23;20125;-71
2021/08/30 13:15:14;;;;;;;0.30;0.30;;;;;;;13.69;41.71;98406.44;6243678;23;20040;-66
2021/08/30 13:17:41;;;;;;;1.08;0.20;;;;;;;13.70;41.83;98404.53;6243539;23;20012;-66
2021/08/30 13:20:10;;;;;;;0.15;0.15;;;;;;;13.67;41.99;98406.72;6245238;23;20012;-66
2021/08/30 13:22:37;;;;;;;0.75;0.57;;;;;;;13.57;42.15;98405.81;6245486;23;20056;-65
2021/08/30 13:25:04;;;;;;;0.20;0.20;;;;;;;13.49;42.08;98407.16;6245356;23;20015;-67
2021/08/30 13:27:32;;;;;;;1.45;1.08;;;;;;;13.45;42.09;98412.34;6245021;23;20007;-67
2021/08/30 13:29:58;;;;;;;0.17;0.17;;;;;;;13.39;42.36;98413.41;6244154;23;20024;-66
2021/08/30 13:32:24;;;;;;;0.57;0.57;;;;;;;13.33;42.50;98409.72;6245127;23;20012;-66
2021/08/30 13:34:49;;;;;;;0.30;0.30;;;;;;;13.33;42.37;98415.25;6245144;23;20460;-65
2021/08/30 13:37:15;;;;;;;0.20;0.20;;;;;;;13.39;42.39;98415.34;6245314;23;20440;-65
2021/08/30 13:39:41;;;;;;;0.15;0.15;;;;;;;13.41;42.36;98405.72;6245079;23;20008;-66
2021/08/30 13:42:07;;;;;;;0.10;0.10;;;;;;;13.38;42.29;98419.19;6244080;23;20012;-66
2021/08/30 13:44:33;;;;;;;0.20;0.20;;;;;;;13.31;42.30;98411.94;6243481;23;20047;-68
2021/08/30 13:46:59;;;;;;;1.38;1.33;;;;;;;13.25;42.61;98415.75;6245173;23;20008;-63
2021/08/30 13:49:25;;;;;;;0.85;0.20;;;;;;;13.23;42.44;98411.56;6244846;23;20012;-66
2021/08/30 13:51:51;;;;;;;0.35;0.35;;;;;;;13.23;42.61;98414.34;6244986;23;20083;-68
2021/08/30 13:54:17;;;;;;;0.22;0.22;;;;;;;13.18;42.86;98409.63;6245077;23;20031;-65
2021/08/30 13:56:43;;;;;;;0.38;0.38;;;;;;;13.13;42.90;98415.06;6245112;23;20456;-66
2021/08/30 13:59:08;;;;;;;1.55;0.73;;;;;;;13.12;42.91;98413.41;6244293;23;20019;-65
2021/08/30 14:01:34;;;;;;;1.02;0.55;;;;;;;13.08;42.84;98410.34;6244445;23;20008;-69
2021/08/30 14:04:01;;;;;;;0.28;0.28;;;;;;;12.99;43.17;98413.84;6244002;23;20016;-65
2021/08/30 14:06:27;;;;;;;0.20;0.20;;;;;;;12.89;42.97;98420.06;6246227;23;20478;-65
2021/08/30 14:08:52;;;;;;;0.20;0.20;;;;;;;12.75;43.33;98420.50;6246287;23;20087;-66
2021/08/30 14:11:18;;;;;;;0.10;0.10;;;;;;;12.65;43.55;98423.13;6246180;23;20031;-66
2021/08/30 14:13:44;;;;;;;0.20;0.20;;;;;;;12.60;43.67;98423.91;6246468;23;20015;-65
2021/08/30 14:16:10;;;;;;;0.90;0.90;;;;;;;12.57;43.78;98415.31;6245941;23;20501;-65
2021/08/30 14:18:36;;;;;;;2.10;0.73;;;;;;;12.54;43.89;98424.09;6246237;23;20015;-65
2021/08/30 14:21:02;;;;;;;0.10;0.10;;;;;;;12.52;43.78;98418.84;6219097;23;20345;-65
2021/08/30 14:23:27;;;;;;;0.20;0.20;;;;;;;12.49;43.81;98430.38;6246325;23;20003;-67
2021/08/30 14:25:53;;;;;;;1.08;0.40;;;;;;;12.42;44.01;98426.97;6219058;23;20098;-66
2021/08/30 14:28:19;;;;;;;0.50;0.50;;;;;;;12.35;43.89;98431.84;6245285;23;20015;-66
2021/08/30 14:30:45;;;;;;;0.20;0.20;;;;;;;12.30;44.09;98429.84;6245504;23;20012;-65
2021/08/30 14:33:11;;;;;;;0.20;0.20;;;;;;;12.24;44.01;98434.47;6245800;23;20050;-64
2021/08/30 14:35:37;;;;;;;0.20;0.20;;;;;;;12.23;44.22;98432.81;6246081;23;20027;-65
2021/08/30 14:38:03;;;;;;;0.20;0.20;;;;;;;12.21;44.05;98423.13;6245794;23;20111;-65
2021/08/30 14:40:30;;;;;;;0.10;0.10;;;;;;;12.18;44.25;98427.22;6246246;23;20325;-66
2021/08/30 14:42:57;;;;;;;0.20;0.20;;;;;;;12.13;44.30;98434.56;6245703;23;20008;-64
2021/08/30 14:45:23;;;;;;;0.20;0.20;;;;;;;12.06;44.38;98437.53;6246066;23;20008;-67
2021/08/30 14:47:49;;;;;;;0.20;0.20;;;;;;;12.00;44.21;98441.28;6245752;23;20012;-66
2021/08/30 14:50:15;;;;;;;0.20;0.20;;;;;;;11.95;44.23;98446.72;6218911;23;20023;-71
2021/08/30 14:52:41;;;;;;;0.10;0.10;;;;;;;11.89;44.57;98443.84;6245150;23;20008;-67
2021/08/30 14:55:08;;;;;;;0.10;0.10;;;;;;;11.86;44.78;98440.78;6245792;23;20400;-65
2021/08/30 14:57:33;;;;;;;0.10;0.10;;;;;;;11.82;44.77;98456.13;6245342;23;20043;-64
2021/08/30 14:59:59;;;;;;;0.20;0.20;;;;;;;11.75;44.62;98459.06;6245070;23;20015;-65
2021/08/30 15:02:26;;;;;;;0.20;0.20;;;;;;;11.67;44.91;98460.28;6246265;23;20433;-65
2021/08/30 15:04:51;;;;;;;0.45;0.45;;;;;;;11.64;44.60;98457.22;6245749;23;20050;-68
2021/08/30 15:07:17;;;;;;;0.20;0.20;;;;;;;11.64;44.65;98465.47;6245484;23;20012;-65
2021/08/30 15:09:44;;;;;;;0.35;0.30;;;;;;;11.63;44.81;98466.53;6245778;23;20018;-65
2021/08/30 15:12:10;;;;;;;1.02;0.68;;;;;;;11.63;44.73;98470.16;6245607;23;20023;-69
2021/08/30 15:14:36;;;;;;;0.10;0.10;;;;;;;11.63;44.70;98474.78;6245510;23;20008;-68
2021/08/30 15:17:01;;;;;;;0.10;0.10;;;;;;;11.59;44.96;98468.97;6244962;23;20041;-66
2021/08/30 15:19:27;;;;;;;0.13;0.13;;;;;;;11.52;45.03;98474.63;6245633;23;20087;-69
2021/08/30 15:21:53;;;;;;;0.20;0.20;;;;;;;11.48;45.13;98484.44;6245896;23;20379;-66
2021/08/30 15:24:18;;;;;;;0.85;0.30;;;;;;;11.44;45.12;98483.31;6246981;23;20008;-68
2021/08/30 15:26:44;;;;;;;0.10;0.10;;;;;;;11.43;44.93;98472.56;6245345;23;20008;-72
2021/08/30 15:29:13;;;;;;;0.10;0.10;;;;;;;11.41;45.00;98475.56;6244500;23;20471;-65
2021/08/30 15:31:40;;;;;;;0.43;0.43;;;;;;;11.40;45.12;98479.38;6244068;23;20008;-66
2021/08/30 15:34:11;;;;;;;0.15;0.15;;;;;;;11.39;45.15;98470.31;6244323;23;20086;-63
2021/08/30 15:36:37;;;;;;;0.85;0.40;;;;;;;11.40;44.78;98484.88;6214178;23;20440;-65
2021/08/30 15:39:04;;;;;;;0.40;0.40;;;;;;;11.40;45.07;98471.94;6243999;23;20008;-64
2021/08/30 15:41:30;;;;;;;0.30;0.30;;;;;;;11.39;44.79;98485.94;6242939;23;20008;-63
2021/08/30 15:43:56;;;;;;;0.30;0.30;;;;;;;11.34;45.02;98488.63;6243605;23;20034;-65
2021/08/30 15:50:25;;;;;;;0.20;0.20;;;;;;;11.30;45.37;98480.03;6238978;23;20026;-65
2021/08/30 15:53:31;;;;;;;0.65;0.40;;;;;;;11.25;45.16;98482.69;6239989;23;20410;-66
2021/08/30 15:56:16;;;;;;;;;;;;;;;11.20;45.33;98483.44;6243042;23;20364;-67
2021/08/30 16:02:45;;;;;;;0.28;0.28;;;;;;;11.20;45.35;98486.19;6239100;23;20353;-65
2021/08/30 16:05:30;;;;;;;;;;;;;;;11.14;45.18;98495.38;6244318;23;20012;-68
2021/08/30 16:08:51;;;;;;;0.50;0.50;;;;;;;11.06;45.48;98493.06;6242193;23;19926;-65
2021/08/30 16:11:16;;;;;;;;;;;;;;;10.98;45.45;98479.69;6243175;23;20034;-66
2021/08/30 16:13:42;;;;;;;0.20;0.20;;;;;;;10.92;45.67;98488.94;6243847;23;19935;-65
2021/08/30 16:16:08;;;;;;;0.50;0.50;;;;;;;10.85;45.69;98498.16;6243407;23;20074;-63